^^
Your Local Weather - Clay, NY Station Historical Data
Daily Summary for August 26, 2017 Units:  English    Metric   Both
« Previous Day
Next Day »
Daily Weekly Monthly Yearly Custom
  High: Low: Average:
Temperature: 71.0 °F 48.0 °F 58 °F
Dew Point: 55.8 °F 46.4 °F 49.6 °F
Humidity: 94% 48% 76%
Wind Speed: 4.0mph 0.0mph 0.7mph
Wind Gust: 6.0mph - -
Wind- - West
Pressure: 30.28 in 30.21 in -
Precipitation: 0.00 in    
Historical Graphs
 
 
Tabular Data for August 26, 2017
Time Temperature Dew Point Pressure Wind Wind Speed Wind Gust Humidity Rainfall Rate (Hourly) solar
00:06 50.5 °F 48.0 °F 30.22 in Calm     91% 0.00 in 0 W/m2
00:12 50.4 °F 47.9 °F 30.22 in Calm     91% 0.00 in 0 W/m2
00:18 50.3 °F 47.8 °F 30.22 in Calm     91% 0.00 in 0 W/m2
00:19 50.3 °F 47.8 °F 30.22 in Calm     91% 0.00 in 0 W/m2
00:26 50.2 °F 48.0 °F 30.22 in Calm     92% 0.00 in 0 W/m2
00:32 50.1 °F 47.9 °F 30.22 in Calm     92% 0.00 in 0 W/m2
00:38 49.9 °F 47.4 °F 30.22 in Calm     91% 0.00 in 0 W/m2
00:43 49.7 °F 47.5 °F 30.22 in Calm     92% 0.00 in 0 W/m2
00:50 49.6 °F 47.4 °F 30.22 in Calm     92% 0.00 in 0 W/m2
00:55 49.6 °F 47.4 °F 30.22 in Calm     92% 0.00 in 0 W/m2
01:02 49.6 °F 47.4 °F 30.22 in Calm     92% 0.00 in 0 W/m2
01:08 49.6 °F 47.4 °F 30.22 in Calm     92% 0.00 in 0 W/m2
01:13 49.6 °F 47.4 °F 30.22 in Calm     92% 0.00 in 0 W/m2
01:19 49.6 °F 47.4 °F 30.22 in Calm     92% 0.00 in 0 W/m2
01:26 49.6 °F 47.4 °F 30.22 in Calm     92% 0.00 in 0 W/m2
01:32 49.6 °F 47.4 °F 30.22 in Calm     92% 0.00 in 0 W/m2
01:38 49.5 °F 47.3 °F 30.22 in Calm     92% 0.00 in 0 W/m2
01:43 49.4 °F 47.2 °F 30.22 in Calm     92% 0.00 in 0 W/m2
01:50 49.4 °F 47.2 °F 30.22 in Calm     92% 0.00 in 0 W/m2
01:55 49.3 °F 47.4 °F 30.22 in Calm     93% 0.00 in 0 W/m2
02:02 49.3 °F 47.4 °F 30.21 in Calm     93% 0.00 in 0 W/m2
02:08 49.5 °F 47.6 °F 30.21 in Calm     93% 0.00 in 0 W/m2
02:14 49.5 °F 47.6 °F 30.21 in Calm     93% 0.00 in 0 W/m2
02:19 49.4 °F 47.5 °F 30.21 in Calm     93% 0.00 in 0 W/m2
02:26 49.3 °F 47.4 °F 30.21 in Calm     93% 0.00 in 0 W/m2
02:32 49.2 °F 47.3 °F 30.21 in Calm     93% 0.00 in 0 W/m2
02:38 49.1 °F 47.2 °F 30.21 in Calm     93% 0.00 in 0 W/m2
02:43 49.0 °F 47.1 °F 30.21 in Calm     93% 0.00 in 0 W/m2
02:50 48.9 °F 47.0 °F 30.21 in Calm     93% 0.00 in 0 W/m2
02:55 48.8 °F 46.9 °F 30.21 in Calm     93% 0.00 in 0 W/m2
03:02 48.7 °F 46.8 °F 30.21 in Calm     93% 0.00 in 0 W/m2
03:08 48.7 °F 46.8 °F 30.21 in Calm     93% 0.00 in 0 W/m2
03:14 48.6 °F 46.7 °F 30.21 in Calm     93% 0.00 in 0 W/m2
03:20 48.9 °F 47.0 °F 30.21 in Calm     93% 0.00 in 0 W/m2
03:25 49.4 °F 47.5 °F 30.21 in Calm     93% 0.00 in 0 W/m2
03:32 49.6 °F 47.7 °F 30.21 in Calm     93% 0.00 in 0 W/m2
03:38 49.7 °F 47.8 °F 30.21 in Calm     93% 0.00 in 0 W/m2
03:43 49.8 °F 47.9 °F 30.21 in Calm     93% 0.00 in 0 W/m2
03:49 49.8 °F 47.9 °F 30.21 in Calm     93% 0.00 in 0 W/m2
03:56 49.9 °F 48.0 °F 30.22 in Calm     93% 0.00 in 0 W/m2
04:02 50.0 °F 48.1 °F 30.22 in Calm     93% 0.00 in 0 W/m2
04:08 50.2 °F 48.5 °F 30.22 in Calm     94% 0.00 in 0 W/m2
04:13 50.3 °F 48.6 °F 30.22 in Calm     94% 0.00 in 0 W/m2
04:20 50.4 °F 48.7 °F 30.22 in Calm     94% 0.00 in 0 W/m2
04:25 50.5 °F 48.8 °F 30.21 in Calm     94% 0.00 in 0 W/m2
04:32 50.6 °F 48.9 °F 30.22 in Calm     94% 0.00 in 0 W/m2
04:38 50.7 °F 49.0 °F 30.22 in Calm     94% 0.00 in 0 W/m2
04:43 50.8 °F 49.1 °F 30.22 in Calm     94% 0.00 in 0 W/m2
04:49 50.7 °F 49.0 °F 30.22 in Calm     94% 0.00 in 0 W/m2
04:55 50.6 °F 48.7 °F 30.22 in Calm     93% 0.00 in 0 W/m2
05:02 50.4 °F 48.7 °F 30.22 in Calm     94% 0.00 in 0 W/m2
05:08 50.1 °F 48.4 °F 30.22 in Calm     94% 0.00 in 0 W/m2
05:13 50.0 °F 48.1 °F 30.22 in Calm     93% 0.00 in 0 W/m2
05:19 49.9 °F 48.0 °F 30.22 in Calm     93% 0.00 in 0 W/m2
05:26 49.8 °F 48.1 °F 30.23 in Calm     94% 0.00 in 0 W/m2
05:32 49.5 °F 47.8 °F 30.23 in Calm     94% 0.00 in 0 W/m2
05:38 49.3 °F 47.4 °F 30.23 in Calm     93% 0.00 in 0 W/m2
05:43 49.0 °F 47.3 °F 30.23 in Calm     94% 0.00 in 0 W/m2
05:50 48.9 °F 47.2 °F 30.23 in Calm     94% 0.00 in 0 W/m2
05:55 48.8 °F 46.9 °F 30.24 in Calm     93% 0.00 in 0 W/m2
06:02 48.5 °F 46.9 °F 30.24 in Calm     94% 0.00 in 0 W/m2
06:08 48.4 °F 46.8 °F 30.24 in Calm     94% 0.00 in 0 W/m2
06:13 48.4 °F 46.8 °F 30.25 in Calm     94% 0.00 in 0 W/m2
06:19 48.4 °F 46.8 °F 30.25 in Calm     94% 0.00 in 0 W/m2
06:25 48.3 °F 46.7 °F 30.25 in Calm     94% 0.00 in 0 W/m2
06:32 48.1 °F 46.5 °F 30.25 in Calm     94% 0.00 in 7 W/m2
06:38 48.0 °F 46.4 °F 30.25 in Calm     94% 0.00 in 11 W/m2
06:44 48.0 °F 46.4 °F 30.25 in Calm     94% 0.00 in 16 W/m2
06:49 48.0 °F 46.4 °F 30.26 in Calm     94% 0.00 in 19 W/m2
06:55 48.0 °F 46.4 °F 30.26 in Calm     94% 0.00 in 25 W/m2
07:02 48.1 °F 46.5 °F 30.26 in Calm     94% 0.00 in 32 W/m2
07:08 48.3 °F 46.7 °F 30.25 in Calm     94% 0.00 in 46 W/m2
07:14 48.6 °F 47.0 °F 30.26 in Calm     94% 0.00 in 58 W/m2
07:19 48.9 °F 47.2 °F 30.26 in Calm     94% 0.00 in 51 W/m2
07:25 49.3 °F 47.6 °F 30.26 in Calm     94% 0.00 in 56 W/m2
07:32 49.5 °F 47.8 °F 30.26 in Calm     94% 0.00 in 56 W/m2
07:38 49.7 °F 48.0 °F 30.26 in Calm     94% 0.00 in 120 W/m2
07:44 50.1 °F 48.4 °F 30.26 in Calm     94% 0.00 in 134 W/m2
07:49 50.3 °F 48.6 °F 30.26 in Calm     94% 0.00 in 148 W/m2
07:55 50.6 °F 48.9 °F 30.26 in Calm     94% 0.00 in 111 W/m2
08:02 50.8 °F 49.1 °F 30.26 in Calm     94% 0.00 in 90 W/m2
08:08 51.1 °F 49.4 °F 30.26 in Calm     94% 0.00 in 98 W/m2
08:13 51.5 °F 49.8 °F 30.26 in Calm     94% 0.00 in 98 W/m2
08:20 52.0 °F 50.3 °F 30.26 in Calm     94% 0.00 in 91 W/m2
08:25 52.5 °F 50.8 °F 30.26 in Calm     94% 0.00 in 111 W/m2
08:32 53.0 °F 51.0 °F 30.26 in Calm     93% 0.00 in 98 W/m2
08:38 53.6 °F 51.6 °F 30.27 in Calm     93% 0.00 in 98 W/m2
08:44 54.2 °F 51.9 °F 30.26 in Calm     92% 0.00 in 155 W/m2
08:50 54.6 °F 51.4 °F 30.26 in Calm   2.0 mph 89% 0.00 in 137 W/m2
08:55 55.3 °F 51.8 °F 30.26 in NW 1.0 mph 2.0 mph 88% 0.00 in 156 W/m2
09:02 56.0 °F 51.9 °F 30.27 in Calm   1.0 mph 86% 0.00 in 125 W/m2
09:08 56.7 °F 52.6 °F 30.26 in NW 1.0 mph 2.0 mph 86% 0.00 in 127 W/m2
09:13 57.2 °F 52.1 °F 30.26 in NW 1.0 mph 1.0 mph 83% 0.00 in 121 W/m2
09:19 57.8 °F 52.7 °F 30.27 in Calm     83% 0.00 in 128 W/m2
09:26 58.4 °F 52.9 °F 30.27 in NW 1.0 mph 1.0 mph 82% 0.00 in 141 W/m2
09:32 59.3 °F 53.8 °F 30.27 in NW 1.0 mph 2.0 mph 82% 0.00 in 446 W/m2
09:38 59.9 °F 53.4 °F 30.27 in SW 1.0 mph 5.0 mph 79% 0.00 in 475 W/m2
09:43 60.5 °F 54.3 °F 30.28 in SSW 1.0 mph 1.0 mph 80% 0.00 in 504 W/m2
09:49 61.0 °F 53.7 °F 30.27 in Calm     77% 0.00 in 524 W/m2
09:56 61.4 °F 53.8 °F 30.28 in Calm   2.0 mph 76% 0.00 in 538 W/m2
10:02 62.1 °F 54.8 °F 30.28 in Calm     77% 0.00 in 547 W/m2
10:08 63.0 °F 55.3 °F 30.28 in Calm     76% 0.00 in 563 W/m2
10:13 63.6 °F 54.4 °F 30.28 in Calm   1.0 mph 72% 0.00 in 578 W/m2
10:19 64.3 °F 55.1 °F 30.28 in SSW 1.0 mph 1.0 mph 72% 0.00 in 591 W/m2
10:25 64.7 °F 54.3 °F 30.28 in WSW 1.0 mph 2.0 mph 69% 0.00 in 606 W/m2
10:32 65.0 °F 54.6 °F 30.28 in Calm     69% 0.00 in 619 W/m2
10:38 65.1 °F 54.7 °F 30.28 in NW 1.0 mph 2.0 mph 69% 0.00 in 633 W/m2
10:43 66.1 °F 54.8 °F 30.28 in NW 2.0 mph 2.0 mph 67% 0.00 in 650 W/m2
10:49 65.4 °F 52.5 °F 30.28 in West 1.0 mph 1.0 mph 63% 0.00 in 661 W/m2
10:56 66.2 °F 52.3 °F 30.28 in West 1.0 mph 1.0 mph 61% 0.00 in 677 W/m2
11:02 66.2 °F 54.1 °F 30.28 in Calm     65% 0.00 in 693 W/m2
11:08 67.1 °F 50.9 °F 30.28 in Calm     56% 0.00 in 701 W/m2
11:13 67.3 °F 53.8 °F 30.28 in Calm     62% 0.00 in 710 W/m2
11:19 68.2 °F 51.4 °F 30.28 in Calm   1.0 mph 55% 0.00 in 717 W/m2
11:25 68.5 °F 55.8 °F 30.27 in West 1.0 mph 1.0 mph 64% 0.00 in 728 W/m2
11:32 68.5 °F 53.1 °F 30.27 in Calm   1.0 mph 58% 0.00 in 733 W/m2
11:38 68.9 °F 53.5 °F 30.27 in WNW 1.0 mph 1.0 mph 58% 0.00 in 737 W/m2
11:44 67.9 °F 52.1 °F 30.27 in WNW 1.0 mph 2.0 mph 57% 0.00 in 745 W/m2
11:49 68.8 °F 53.4 °F 30.27 in NW 1.0 mph 1.0 mph 58% 0.00 in 756 W/m2
11:55 69.3 °F 53.4 °F 30.27 in Calm   1.0 mph 57% 0.00 in 765 W/m2
12:02 68.2 °F 48.8 °F 30.26 in NW 1.0 mph 3.0 mph 50% 0.00 in 770 W/m2
12:08 68.7 °F 52.8 °F 30.26 in North 2.0 mph 3.0 mph 57% 0.00 in 772 W/m2
12:14 68.8 °F 51.0 °F 30.26 in North 2.0 mph 4.0 mph 53% 0.00 in 780 W/m2
12:19 69.0 °F 51.7 °F 30.26 in North 2.0 mph 3.0 mph 54% 0.00 in 826 W/m2
12:25 68.2 °F 51.9 °F 30.26 in NNW 2.0 mph 3.0 mph 56% 0.00 in 316 W/m2
12:32 68.2 °F 49.9 °F 30.26 in NNE 3.0 mph 3.0 mph 52% 0.00 in 267 W/m2
12:38 69.0 °F 49.6 °F 30.26 in NW 2.0 mph 3.0 mph 50% 0.00 in 796 W/m2
12:44 69.3 °F 50.9 °F 30.26 in NNW 2.0 mph 2.0 mph 52% 0.00 in 842 W/m2
12:49 69.5 °F 50.0 °F 30.25 in NW 2.0 mph 2.0 mph 50% 0.00 in 888 W/m2
12:55 70.5 °F 51.0 °F 30.25 in NW 2.0 mph 2.0 mph 50% 0.00 in 895 W/m2
13:02 69.6 °F 49.6 °F 30.25 in North 2.0 mph 4.0 mph 49% 0.00 in 905 W/m2
13:08 69.6 °F 50.1 °F 30.25 in North 3.0 mph 4.0 mph 50% 0.00 in 545 W/m2
13:14 68.0 °F 49.7 °F 30.25 in NW 3.0 mph 5.0 mph 52% 0.00 in 264 W/m2
13:19 67.8 °F 51.5 °F 30.25 in North 2.0 mph 2.0 mph 56% 0.00 in 830 W/m2
13:32 68.7 °F 51.4 °F 30.25 in Calm   3.0 mph 54% 0.00 in 264 W/m2
13:38 68.9 °F 50.5 °F 30.25 in NW 1.0 mph 3.0 mph 52% 0.00 in 819 W/m2
13:44 70.0 °F 52.1 °F 30.25 in NW 1.0 mph 2.0 mph 53% 0.00 in 805 W/m2
13:49 70.3 °F 52.9 °F 30.25 in NNW 2.0 mph 2.0 mph 54% 0.00 in 807 W/m2
13:56 70.7 °F 53.2 °F 30.25 in NW 2.0 mph 2.0 mph 54% 0.00 in 824 W/m2
14:03 70.9 °F 50.2 °F 30.25 in WSW 1.0 mph 2.0 mph 48% 0.00 in 879 W/m2
14:09 70.2 °F 51.2 °F 30.24 in NW 2.0 mph 2.0 mph 51% 0.00 in 297 W/m2
14:15 69.4 °F 49.9 °F 30.24 in North 2.0 mph 5.0 mph 50% 0.00 in 823 W/m2
14:22 69.1 °F 50.7 °F 30.24 in NW 3.0 mph 4.0 mph 52% 0.00 in 290 W/m2
14:28 68.3 °F 49.5 °F 30.24 in NNW 3.0 mph 4.0 mph 51% 0.00 in 269 W/m2
14:33 68.8 °F 49.4 °F 30.24 in North 2.0 mph 3.0 mph 50% 0.00 in 759 W/m2
14:39 69.9 °F 50.4 °F 30.23 in West 2.0 mph 2.0 mph 50% 0.00 in 777 W/m2
14:46 71.0 °F 52.0 °F 30.23 in NW 2.0 mph 2.0 mph 51% 0.00 in 816 W/m2
14:52 70.2 °F 51.2 °F 30.23 in NW 3.0 mph 4.0 mph 51% 0.00 in 770 W/m2
14:58 69.4 °F 49.9 °F 30.23 in NW 4.0 mph 4.0 mph 50% 0.00 in 225 W/m2
15:03 69.2 °F 50.8 °F 30.23 in NNE 2.0 mph 5.0 mph 52% 0.00 in 722 W/m2
15:09 70.1 °F 50.0 °F 30.23 in North 3.0 mph 4.0 mph 49% 0.00 in 731 W/m2
15:15 70.5 °F 50.4 °F 30.23 in NW 3.0 mph 4.0 mph 49% 0.00 in 745 W/m2
15:22 69.5 °F 51.1 °F 30.23 in North 3.0 mph 3.0 mph 52% 0.00 in 248 W/m2
15:28 70.2 °F 51.2 °F 30.23 in North 2.0 mph 3.0 mph 51% 0.00 in 675 W/m2
15:34 70.7 °F 50.6 °F 30.23 in NNW 2.0 mph 4.0 mph 49% 0.00 in 223 W/m2
15:39 69.7 °F 50.8 °F 30.23 in NNW 3.0 mph 5.0 mph 51% 0.00 in 707 W/m2
15:45 69.8 °F 49.8 °F 30.23 in North 3.0 mph 5.0 mph 49% 0.00 in 185 W/m2
15:52 68.8 °F 51.0 °F 30.23 in NNW 2.0 mph 3.0 mph 53% 0.00 in 167 W/m2
15:58 68.7 °F 51.4 °F 30.23 in NNW 2.0 mph 4.0 mph 54% 0.00 in 202 W/m2
16:04 68.5 °F 50.7 °F 30.23 in NNW 1.0 mph 2.0 mph 53% 0.00 in 204 W/m2
16:10 68.8 °F 51.0 °F 30.23 in ENE 2.0 mph 4.0 mph 53% 0.00 in 592 W/m2
16:15 68.2 °F 51.9 °F 30.23 in NNW 3.0 mph 4.0 mph 56% 0.00 in 144 W/m2
16:22 67.6 °F 51.8 °F 30.23 in NW 2.0 mph 2.0 mph 57% 0.00 in 172 W/m2
16:28 68.0 °F 51.2 °F 30.22 in WNW 2.0 mph 4.0 mph 55% 0.00 in 533 W/m2
16:34 68.1 °F 50.8 °F 30.22 in NW 3.0 mph 3.0 mph 54% 0.00 in 146 W/m2
16:39 68.0 °F 51.7 °F 30.23 in NW 2.0 mph 2.0 mph 56% 0.00 in 434 W/m2
16:45 68.3 °F 52.0 °F 30.23 in NNW 2.0 mph 4.0 mph 56% 0.00 in 489 W/m2
16:52 68.7 °F 52.4 °F 30.23 in NNE 4.0 mph 4.0 mph 56% 0.00 in 455 W/m2
16:58 68.8 °F 50.5 °F 30.23 in NW 3.0 mph 5.0 mph 52% 0.00 in 432 W/m2
17:03 68.3 °F 50.0 °F 30.23 in NNW 4.0 mph 5.0 mph 52% 0.00 in 418 W/m2
17:09 68.8 °F 50.5 °F 30.23 in NNE 3.0 mph 4.0 mph 52% 0.00 in 396 W/m2
17:15 68.6 °F 52.3 °F 30.23 in North 2.0 mph 4.0 mph 56% 0.00 in 378 W/m2
17:22 68.7 °F 51.9 °F 30.22 in North 2.0 mph 6.0 mph 55% 0.00 in 350 W/m2
17:28 68.6 °F 49.7 °F 30.23 in North 3.0 mph 6.0 mph 51% 0.00 in 171 W/m2
17:33 68.8 °F 48.9 °F 30.23 in NNW 2.0 mph 4.0 mph 49% 0.00 in 251 W/m2
17:39 68.7 °F 48.8 °F 30.23 in NW 1.0 mph 1.0 mph 49% 0.00 in 202 W/m2
17:45 68.5 °F 49.1 °F 30.23 in NNW 1.0 mph 3.0 mph 50% 0.00 in 244 W/m2
17:52 68.1 °F 49.3 °F 30.23 in NW 2.0 mph 3.0 mph 51% 0.00 in 77 W/m2
17:58 67.7 °F 48.9 °F 30.23 in NNW 2.0 mph 3.0 mph 51% 0.00 in 74 W/m2
18:04 67.6 °F 49.3 °F 30.23 in NW 1.0 mph 2.0 mph 52% 0.00 in 74 W/m2
18:10 67.2 °F 49.0 °F 30.23 in NW 1.0 mph 1.0 mph 52% 0.00 in 79 W/m2
18:15 66.9 °F 49.2 °F 30.23 in NW 1.0 mph 1.0 mph 53% 0.00 in 62 W/m2
18:23 66.6 °F 49.4 °F 30.23 in NW 1.0 mph 1.0 mph 54% 0.00 in 58 W/m2
18:30 66.3 °F 48.7 °F 30.23 in NW 1.0 mph 2.0 mph 53% 0.00 in 54 W/m2
18:36 66.1 °F 49.0 °F 30.23 in NW 1.0 mph 2.0 mph 54% 0.00 in 51 W/m2
18:42 65.8 °F 49.2 °F 30.23 in NW 1.0 mph 1.0 mph 55% 0.00 in 47 W/m2
18:48 65.4 °F 49.8 °F 30.23 in NNW 1.0 mph 2.0 mph 57% 0.00 in 44 W/m2
18:54 65.1 °F 50.0 °F 30.23 in North 2.0 mph 2.0 mph 58% 0.00 in 40 W/m2
18:59 64.7 °F 50.0 °F 30.23 in North 2.0 mph 3.0 mph 59% 0.00 in 37 W/m2
19:06 64.2 °F 49.6 °F 30.23 in NNE 1.0 mph 3.0 mph 59% 0.00 in 32 W/m2
19:12 63.9 °F 50.2 °F 30.23 in Calm   1.0 mph 61% 0.00 in 28 W/m2
19:18 63.5 °F 50.2 °F 30.23 in Calm   1.0 mph 62% 0.00 in 23 W/m2
19:23 63.1 °F 49.9 °F 30.24 in Calm     62% 0.00 in 19 W/m2
19:29 62.5 °F 49.3 °F 30.24 in Calm     62% 0.00 in 14 W/m2
19:36 62.0 °F 51.7 °F 30.24 in Calm     69% 0.00 in 11 W/m2
19:42 60.7 °F 51.2 °F 30.24 in Calm     71% 0.00 in 7 W/m2
19:48 59.9 °F 50.5 °F 30.24 in Calm     71% 0.00 in 0 W/m2
19:53 59.3 °F 50.3 °F 30.24 in Calm     72% 0.00 in 0 W/m2
20:00 58.6 °F 50.3 °F 30.25 in Calm     74% 0.00 in 0 W/m2
20:05 58.1 °F 50.6 °F 30.24 in Calm     76% 0.00 in 0 W/m2
20:12 57.3 °F 50.1 °F 30.25 in Calm     77% 0.00 in 0 W/m2
20:18 56.7 °F 49.6 °F 30.25 in Calm     77% 0.00 in 0 W/m2
20:23 56.2 °F 49.8 °F 30.25 in Calm     79% 0.00 in 0 W/m2
20:30 55.7 °F 49.6 °F 30.25 in Calm     80% 0.00 in 0 W/m2
20:35 55.3 °F 49.9 °F 30.25 in Calm     82% 0.00 in 0 W/m2
20:42 55.0 °F 49.6 °F 30.25 in Calm     82% 0.00 in 0 W/m2
20:48 54.6 °F 49.2 °F 30.25 in Calm     82% 0.00 in 0 W/m2
20:53 54.3 °F 49.2 °F 30.26 in Calm     83% 0.00 in 0 W/m2
21:00 53.9 °F 48.9 °F 30.25 in Calm     83% 0.00 in 0 W/m2
21:06 53.7 °F 49.0 °F 30.26 in Calm     84% 0.00 in 0 W/m2
21:12 53.5 °F 49.4 °F 30.26 in Calm     86% 0.00 in 0 W/m2
21:18 53.3 °F 49.2 °F 30.26 in Calm     86% 0.00 in 0 W/m2
21:23 53.0 °F 48.9 °F 30.26 in Calm     86% 0.00 in 0 W/m2
21:29 52.7 °F 48.6 °F 30.26 in Calm     86% 0.00 in 0 W/m2
21:35 52.5 °F 48.7 °F 30.26 in Calm     87% 0.00 in 0 W/m2
21:42 52.4 °F 48.6 °F 30.26 in Calm     87% 0.00 in 0 W/m2
21:48 52.2 °F 48.4 °F 30.26 in Calm     87% 0.00 in 0 W/m2
21:54 52.2 °F 48.8 °F 30.27 in Calm     88% 0.00 in 0 W/m2
22:00 52.1 °F 48.7 °F 30.27 in Calm     88% 0.00 in 0 W/m2
22:05 52.0 °F 48.6 °F 30.26 in Calm     88% 0.00 in 0 W/m2
22:12 51.9 °F 48.8 °F 30.26 in Calm     89% 0.00 in 0 W/m2
22:18 51.9 °F 48.8 °F 30.26 in Calm     89% 0.00 in 0 W/m2
22:24 51.7 °F 48.6 °F 30.27 in Calm     89% 0.00 in 0 W/m2
22:29 51.6 °F 48.5 °F 30.27 in Calm     89% 0.00 in 0 W/m2
22:35 51.4 °F 48.6 °F 30.27 in Calm     90% 0.00 in 0 W/m2
22:42 51.3 °F 48.5 °F 30.27 in Calm     90% 0.00 in 0 W/m2
22:48 51.2 °F 48.4 °F 30.27 in Calm     90% 0.00 in 0 W/m2
22:54 51.2 °F 48.4 °F 30.27 in Calm     90% 0.00 in 0 W/m2
22:59 51.0 °F 48.2 °F 30.27 in Calm     90% 0.00 in 0 W/m2
23:05 50.8 °F 48.0 °F 30.27 in Calm     90% 0.00 in 0 W/m2
23:12 50.5 °F 47.7 °F 30.27 in Calm     90% 0.00 in 0 W/m2
23:18 50.2 °F 47.4 °F 30.27 in Calm     90% 0.00 in 0 W/m2
23:24 50.1 °F 47.6 °F 30.27 in Calm     91% 0.00 in 0 W/m2
23:29 50.1 °F 47.6 °F 30.27 in Calm     91% 0.00 in 0 W/m2
23:36 50.2 °F 47.7 °F 30.27 in Calm     91% 0.00 in 0 W/m2
23:42 50.2 °F 47.7 °F 30.27 in Calm     91% 0.00 in 0 W/m2
23:48 50.2 °F 48.0 °F 30.26 in Calm     92% 0.00 in 0 W/m2
23:53 50.1 °F 47.9 °F 30.27 in Calm     92% 0.00 in 0 W/m2
23:56 50.1 °F 47.9 °F 30.27 in Calm     92% 0.00 in 0 W/m2
Country Meadow, Clay, NY, USA
Compliments of Weather Underground - 2 mb